createdAt,value
2019-01-05T00:02:18.183Z,20.43
2019-01-05T00:05:16.540Z,18.53
2019-01-05T00:08:05.798Z,23.83
2019-01-05T00:10:57.856Z,21.27
2019-01-05T00:13:45.921Z,21.23
2019-01-05T00:16:34.560Z,23.20
2019-01-05T00:19:23.417Z,21.17
2019-01-05T00:22:23.588Z,21.10
2019-01-05T00:25:11.883Z,22.70
2019-01-05T00:28:07.755Z,23.83
2019-01-05T00:30:57.036Z,17.10
2019-01-05T00:33:50.329Z,17.20
2019-01-05T00:40:48.510Z,21.20
2019-01-05T00:43:39.158Z,19.47
2019-01-05T00:46:37.449Z,19.10
2019-01-05T00:49:37.965Z,15.27
2019-01-05T00:52:33.338Z,21.40
2019-01-05T00:55:33.707Z,16.67
2019-01-05T00:58:25.046Z,18.40
2019-01-05T01:01:21.426Z,24.07
2019-01-05T01:04:07.307Z,20.50
2019-01-05T01:07:09.008Z,24.37
2019-01-05T01:10:05.083Z,13.77
2019-01-05T01:12:54.685Z,16.10
2019-01-05T01:15:53.388Z,17.27
2019-01-05T01:18:47.103Z,19.77
2019-01-05T01:21:36.164Z,18.90
2019-01-05T01:24:25.589Z,12.43
2019-01-05T01:27:23.991Z,14.70
2019-01-05T01:30:15.507Z,11.97
2019-01-05T01:33:02.948Z,18.93
2019-01-05T01:35:50.268Z,13.00
2019-01-05T01:38:57.335Z,12.47
2019-01-05T01:41:52.499Z,10.27
2019-01-05T01:44:40.391Z,9.87
2019-01-05T01:47:31.172Z,12.87
2019-01-05T01:50:20.188Z,13.10
2019-01-05T01:53:25.920Z,11.03
2019-01-05T01:56:37.455Z,13.20
2019-01-05T01:59:52.684Z,9.23
2019-01-05T02:02:52.603Z,8.53
2019-01-05T02:05:44.212Z,10.17
2019-01-05T02:08:36.109Z,9.70
2019-01-05T02:11:39.035Z,8.87
2019-01-05T02:14:22.443Z,7.90
2019-01-05T02:17:23.532Z,9.40
2019-01-05T02:21:18.088Z,12.80
2019-01-05T02:24:41.763Z,10.37
2019-01-05T02:28:11.367Z,10.43
2019-01-05T02:31:35.830Z,16.00
2019-01-05T02:35:03.386Z,14.27
2019-01-05T02:38:35.578Z,15.20
2019-01-05T02:41:40.430Z,21.33
2019-01-05T02:45:04.902Z,21.53
2019-01-05T02:48:36.720Z,16.57
2019-01-05T02:51:54.477Z,23.03
2019-01-05T02:55:40.981Z,21.50
2019-01-05T02:59:13.608Z,21.73
2019-01-05T03:02:47.959Z,16.67
2019-01-05T03:06:00.121Z,22.47
2019-01-05T03:09:33.803Z,25.17
2019-01-05T03:13:04.777Z,19.37
2019-01-05T03:16:46.986Z,18.53
2019-01-05T03:20:17.481Z,15.70
2019-01-05T03:23:34.273Z,22.67
2019-01-05T03:27:00.457Z,17.43
2019-01-05T03:30:41.541Z,16.47
2019-01-05T03:34:28.149Z,20.03
2019-01-05T03:38:04.489Z,18.57
2019-01-05T03:41:31.001Z,17.70
2019-01-05T03:45:17.953Z,23.00
2019-01-05T03:48:22.470Z,19.97
2019-01-05T03:52:12.496Z,19.40
2019-01-05T03:55:53.950Z,19.63
2019-01-05T03:59:12.297Z,18.63
2019-01-05T04:02:47.280Z,19.67
2019-01-05T04:06:43.303Z,20.60
2019-01-05T04:10:12.208Z,18.10
2019-01-05T04:14:00.191Z,16.63
2019-01-05T04:17:42.618Z,18.23
2019-01-05T04:21:37.910Z,13.53
2019-01-05T04:25:04.000Z,17.60
2019-01-05T04:28:39.931Z,15.90
2019-01-05T04:32:24.745Z,12.17
2019-01-05T04:35:48.260Z,15.87
2019-01-05T04:39:28.665Z,11.83
2019-01-05T04:43:13.580Z,14.47
2019-01-05T04:46:53.584Z,13.00
2019-01-05T04:50:34.052Z,12.17
2019-01-05T04:54:07.701Z,9.87
2019-01-05T04:58:04.930Z,11.27
2019-01-05T05:01:33.533Z,14.00
2019-01-05T05:05:06.006Z,11.33
2019-01-05T05:08:44.288Z,12.67
2019-01-05T05:12:21.704Z,14.20
2019-01-05T05:16:16.475Z,11.50
2019-01-05T05:23:09.648Z,10.80
2019-01-05T05:26:57.492Z,10.83
2019-01-05T05:30:43.464Z,10.97
2019-01-05T05:34:29.044Z,7.60
2019-01-05T05:37:54.001Z,8.73
2019-01-05T05:41:12.412Z,9.27
2019-01-05T05:44:39.100Z,7.37
2019-01-05T05:48:24.616Z,7.57
2019-01-05T05:51:56.421Z,6.07
2019-01-05T05:55:36.245Z,7.00
2019-01-05T05:58:49.992Z,6.70
2019-01-05T06:02:16.700Z,9.23
2019-01-05T06:06:10.872Z,6.37
2019-01-05T06:09:57.701Z,5.40
2019-01-05T06:13:11.303Z,7.60
2019-01-05T06:16:38.313Z,4.87
2019-01-05T06:20:25.974Z,6.17
2019-01-05T06:24:17.952Z,6.10
2019-01-05T06:27:56.559Z,7.20
2019-01-05T06:31:21.788Z,7.03
2019-01-05T06:34:56.038Z,12.00
2019-01-05T06:38:22.011Z,8.63
2019-01-05T06:41:55.580Z,9.97
2019-01-05T06:45:12.799Z,10.03
2019-01-05T06:49:06.717Z,11.17
2019-01-05T06:52:31.412Z,11.00
2019-01-05T06:56:11.660Z,6.37
2019-01-05T07:00:04.139Z,10.47
2019-01-05T07:03:32.334Z,14.60
2019-01-05T07:06:56.237Z,12.07
2019-01-05T07:10:40.204Z,11.43
2019-01-05T07:14:19.447Z,13.40
2019-01-05T07:18:02.824Z,11.77
2019-01-05T07:21:17.860Z,8.83
2019-01-05T07:24:46.222Z,13.07
2019-01-05T07:28:20.795Z,9.20
2019-01-05T07:31:48.544Z,10.00
2019-01-05T07:35:36.473Z,10.20
2019-01-05T07:38:50.476Z,15.47
2019-01-05T07:42:44.464Z,11.30
2019-01-05T07:46:13.031Z,10.50
2019-01-05T07:49:47.268Z,16.73
2019-01-05T07:53:20.147Z,12.87
2019-01-05T07:56:52.144Z,15.57
2019-01-05T08:00:46.357Z,12.57
2019-01-05T08:03:52.718Z,14.27
2019-01-05T08:07:47.176Z,10.90
2019-01-05T08:11:12.523Z,12.17
2019-01-05T08:14:44.669Z,14.17
2019-01-05T08:18:16.771Z,12.97
2019-01-05T08:22:04.752Z,12.57
2019-01-05T08:25:28.851Z,12.30
2019-01-05T08:28:45.233Z,9.87
2019-01-05T08:32:18.640Z,9.83
2019-01-05T08:35:43.079Z,13.07
2019-01-05T08:39:17.428Z,15.27
2019-01-05T08:42:44.692Z,16.37
2019-01-05T08:46:08.216Z,13.80
2019-01-05T08:49:52.828Z,11.90
2019-01-05T08:53:27.786Z,12.33
2019-01-05T08:57:22.036Z,10.13
2019-01-05T09:00:54.292Z,10.03
2019-01-05T09:04:36.349Z,7.90
2019-01-05T09:08:32.349Z,5.30
2019-01-05T09:12:25.420Z,6.33
2019-01-05T09:15:52.984Z,8.87
2019-01-05T09:19:31.853Z,5.97
2019-01-05T09:23:06.532Z,3.80
2019-01-05T09:26:42.128Z,4.60
2019-01-05T09:30:05.007Z,4.07
2019-01-05T09:33:17.433Z,3.87
2019-01-05T09:36:33.540Z,4.97
2019-01-05T09:39:59.774Z,5.77
2019-01-05T09:43:29.417Z,3.67
2019-01-05T09:46:52.952Z,4.53
2019-01-05T09:50:13.125Z,3.03
2019-01-05T09:53:41.648Z,5.23
2019-01-05T09:57:16.140Z,2.40
2019-01-05T10:00:57.910Z,2.30
2019-01-05T10:04:33.316Z,3.77
2019-01-05T10:08:21.304Z,2.50
2019-01-05T10:11:54.577Z,4.70
2019-01-05T10:15:39.873Z,2.17
2019-01-05T10:19:32.684Z,2.60
2019-01-05T10:22:51.373Z,3.30
2019-01-05T10:26:24.516Z,3.70
2019-01-05T10:30:00.401Z,3.07
2019-01-05T10:33:24.215Z,4.03
2019-01-05T10:36:50.345Z,7.93
2019-01-05T10:40:25.522Z,9.33
2019-01-05T10:44:05.600Z,7.17
2019-01-05T10:48:06.499Z,4.73
2019-01-05T10:51:47.110Z,6.37
2019-01-05T10:55:35.088Z,3.83
2019-01-05T10:59:38.557Z,1.87
2019-01-05T11:03:46.084Z,1.43
2019-01-05T11:07:12.333Z,3.57
2019-01-05T11:10:35.440Z,18.47
2019-01-05T11:14:12.416Z,7.00
2019-01-05T11:17:38.736Z,3.80
2019-01-05T11:21:06.850Z,5.13
2019-01-05T11:40:13.191Z,3.57
2019-01-05T11:43:55.992Z,3.00
2019-01-05T11:47:44.892Z,4.60
2019-01-05T11:51:03.240Z,2.00
2019-01-05T11:54:33.299Z,4.37
2019-01-05T11:58:33.903Z,2.33
2019-01-05T12:01:58.907Z,3.03
2019-01-05T12:04:55.953Z,2.77
2019-01-05T12:09:00.223Z,2.77
2019-01-05T12:12:38.709Z,2.27
2019-01-05T12:16:40.859Z,1.77
2019-01-05T12:20:22.344Z,2.93
2019-01-05T12:27:53.597Z,2.20
2019-01-05T12:31:26.459Z,2.50
2019-01-05T12:38:11.863Z,3.00
2019-01-05T12:41:57.835Z,2.13
2019-01-05T12:45:44.228Z,2.83
2019-01-05T12:49:09.858Z,3.73
2019-01-05T12:52:50.444Z,3.43
2019-01-05T12:56:20.896Z,4.90
2019-01-05T13:00:16.882Z,4.73
2019-01-05T13:03:44.872Z,3.60
2019-01-05T13:07:30.537Z,4.10
2019-01-05T13:11:11.250Z,3.30
2019-01-05T13:14:44.883Z,2.53
2019-01-05T13:18:34.918Z,3.30
2019-01-05T13:22:18.533Z,4.53
2019-01-05T13:26:12.230Z,5.07
2019-01-05T13:29:54.659Z,3.63
2019-01-05T13:33:27.087Z,4.23
2019-01-05T13:36:58.674Z,5.00
2019-01-05T13:40:46.890Z,4.47
2019-01-05T13:44:32.719Z,3.73
2019-01-05T13:48:24.251Z,3.03
2019-01-05T13:51:48.026Z,3.80
2019-01-05T13:54:36.830Z,3.33
2019-01-05T13:57:34.496Z,7.37
2019-01-05T14:00:44.974Z,4.57
2019-01-05T14:03:41.812Z,3.27
2019-01-05T14:06:31.631Z,4.23
2019-01-05T14:09:24.093Z,5.40
2019-01-05T14:12:16.080Z,7.17
2019-01-05T14:15:11.913Z,4.80
2019-01-05T14:18:21.304Z,6.17
2019-01-05T14:21:34.697Z,6.93
2019-01-05T14:24:29.024Z,8.87
2019-01-05T14:27:57.634Z,5.63
2019-01-05T15:00:57.002Z,4.27
2019-01-05T15:07:52.580Z,4.27
2019-01-05T15:11:09.385Z,3.43
2019-01-05T15:14:18.609Z,3.57
2019-01-05T15:43:38.423Z,8.40
2019-01-05T15:47:38.680Z,10.50
2019-01-05T15:51:02.111Z,7.13
2019-01-05T15:53:23.221Z,8.57
2019-01-05T15:56:52.449Z,9.33
2019-01-05T16:08:24.566Z,13.77
2019-01-05T16:11:16.494Z,19.10
2019-01-05T16:14:08.184Z,13.00
2019-01-05T16:17:25.972Z,16.83
2019-01-05T16:20:30.997Z,16.93
2019-01-05T16:23:59.212Z,14.73
2019-01-05T16:26:47.104Z,14.40
2019-01-05T16:29:41.777Z,11.40
2019-01-05T16:39:02.504Z,10.23
2019-01-05T16:42:07.082Z,13.40
2019-01-05T16:44:56.319Z,9.33
2019-01-05T16:47:44.778Z,10.50
2019-01-05T16:50:34.051Z,7.40
2019-01-05T16:53:19.236Z,9.37
2019-01-05T16:56:08.479Z,7.93
2019-01-05T16:58:53.684Z,7.87
2019-01-05T17:01:46.293Z,5.57
2019-01-05T17:04:34.627Z,8.77
2019-01-05T17:10:36.183Z,6.10
2019-01-05T17:13:24.199Z,7.37
2019-01-05T17:16:24.080Z,6.60
2019-01-05T17:19:12.736Z,7.83
2019-01-05T17:22:00.948Z,5.70
2019-01-05T17:24:57.485Z,10.60
2019-01-05T17:27:46.958Z,11.50
2019-01-05T17:30:55.362Z,9.90
2019-01-05T17:33:53.470Z,11.03
2019-01-05T17:37:16.467Z,15.20
2019-01-05T17:40:14.320Z,10.67
2019-01-05T17:51:47.395Z,9.83
2019-01-05T17:58:06.851Z,8.30
2019-01-05T18:01:09.796Z,11.83
2019-01-05T18:04:24.546Z,7.97
2019-01-05T18:07:19.163Z,12.63
2019-01-05T18:10:37.278Z,9.97
2019-01-05T18:13:43.613Z,11.33
2019-01-05T18:17:22.798Z,13.90
2019-01-05T18:20:13.784Z,12.63
2019-01-05T18:26:42.309Z,20.80
2019-01-05T18:33:25.296Z,6.60
2019-01-05T18:37:09.830Z,8.97
2019-01-05T18:41:37.084Z,13.37
2019-01-05T18:47:41.663Z,14.00
2019-01-05T19:02:38.766Z,11.27
2019-01-05T19:09:51.737Z,8.77
2019-01-05T19:24:53.908Z,7.80
2019-01-05T19:44:39.841Z,9.37
2019-01-05T19:51:35.074Z,5.53
2019-01-05T19:57:45.565Z,5.27
2019-01-05T20:00:38.300Z,6.90
2019-01-05T20:03:29.322Z,8.80
2019-01-05T20:06:18.940Z,9.90
2019-01-05T20:09:10.255Z,18.67
2019-01-05T20:11:59.543Z,24.63
2019-01-05T20:14:57.743Z,16.67
2019-01-05T20:17:59.167Z,6.47
2019-01-05T20:20:49.994Z,4.63
2019-01-05T20:23:44.778Z,3.23
2019-01-05T20:26:46.635Z,6.33
2019-01-05T20:29:29.554Z,2.70
2019-01-05T20:32:17.893Z,2.93
2019-01-05T20:35:06.128Z,2.57
2019-01-05T20:37:53.739Z,4.83
2019-01-05T20:40:41.548Z,1.77
2019-01-05T20:43:30.860Z,4.03
2019-01-05T20:46:19.349Z,3.20
2019-01-05T20:49:08.668Z,4.03
2019-01-05T20:55:27.359Z,5.93
2019-01-05T20:58:10.779Z,5.90
2019-01-05T21:01:04.255Z,4.50
2019-01-05T21:03:54.458Z,5.53
2019-01-05T21:06:39.563Z,4.20
2019-01-05T21:09:32.671Z,5.27
2019-01-05T21:12:20.964Z,9.13
2019-01-05T21:15:00.043Z,8.47
2019-01-05T21:17:49.296Z,9.43
2019-01-05T21:20:32.041Z,8.03
2019-01-05T21:27:39.645Z,10.13
2019-01-05T21:36:27.310Z,12.77
2019-01-05T21:39:17.089Z,8.60
2019-01-05T21:42:12.019Z,7.37
2019-01-05T21:45:07.053Z,8.90
2019-01-05T21:47:56.463Z,8.20
2019-01-05T21:50:45.914Z,8.43
2019-01-05T21:53:34.183Z,10.37
2019-01-05T21:56:16.488Z,5.93
2019-01-05T21:59:04.291Z,8.07
2019-01-05T22:01:59.364Z,9.00
2019-01-05T22:04:51.387Z,6.70
2019-01-05T22:07:46.671Z,7.30
2019-01-05T22:10:46.492Z,6.30
2019-01-05T22:13:34.884Z,6.80
2019-01-05T22:16:24.103Z,11.73
2019-01-05T22:19:19.452Z,7.43
2019-01-05T22:22:07.577Z,6.87
2019-01-05T22:25:09.044Z,5.97
2019-01-05T22:27:56.783Z,8.53
2019-01-05T22:30:34.251Z,8.73
2019-01-05T22:43:42.605Z,7.97
2019-01-05T22:47:12.431Z,12.70
2019-01-05T22:57:00.624Z,8.07
2019-01-05T23:00:17.384Z,6.50
2019-01-05T23:41:11.608Z,9.80
2019-01-05T23:49:15.711Z,7.37
